sensor_id;sensor_type;location;lat;lon;timestamp;pressure;altitude;pressure_sealevel;temperature;humidity
6090;BME280;3073;42.660;23.316;2023-11-18T00:00:54;93812.06;;;18.85;48.97
6090;BME280;3073;42.660;23.316;2023-11-18T00:03:21;93802.25;;;18.48;48.73
6090;BME280;3073;42.660;23.316;2023-11-18T00:05:47;93806.16;;;18.93;47.96
6090;BME280;3073;42.660;23.316;2023-11-18T00:08:14;93816.25;;;19.84;46.59
6090;BME280;3073;42.660;23.316;2023-11-18T00:10:41;93804.25;;;19.63;46.62
6090;BME280;3073;42.660;23.316;2023-11-18T00:13:08;93798.25;;;18.81;47.39
6090;BME280;3073;42.660;23.316;2023-11-18T00:15:36;93806.28;;;18.80;47.19
6090;BME280;3073;42.660;23.316;2023-11-18T00:18:03;93824.97;;;18.60;46.80
6090;BME280;3073;42.660;23.316;2023-11-18T00:20:30;93834.09;;;17.78;49.80
6090;BME280;3073;42.660;23.316;2023-11-18T00:22:57;93841.53;;;18.11;48.15
6090;BME280;3073;42.660;23.316;2023-11-18T00:25:24;93826.50;;;18.69;47.31
6090;BME280;3073;42.660;23.316;2023-11-18T00:27:50;93812.25;;;18.24;46.87
6090;BME280;3073;42.660;23.316;2023-11-18T00:30:17;93797.34;;;17.81;48.31
6090;BME280;3073;42.660;23.316;2023-11-18T00:32:46;93787.97;;;17.85;48.29
6090;BME280;3073;42.660;23.316;2023-11-18T00:35:13;93791.56;;;19.15;47.06
6090;BME280;3073;42.660;23.316;2023-11-18T00:37:40;93798.13;;;20.14;44.54
6090;BME280;3073;42.660;23.316;2023-11-18T00:40:07;93786.38;;;19.78;45.13
6090;BME280;3073;42.660;23.316;2023-11-18T00:42:35;93805.59;;;18.48;47.29
6090;BME280;3073;42.660;23.316;2023-11-18T00:45:02;93808.13;;;19.94;44.46
6090;BME280;3073;42.660;23.316;2023-11-18T00:47:29;93808.56;;;18.08;47.64
6090;BME280;3073;42.660;23.316;2023-11-18T00:49:57;93800.22;;;19.10;46.13
6090;BME280;3073;42.660;23.316;2023-11-18T00:52:27;93807.78;;;20.04;44.93
6090;BME280;3073;42.660;23.316;2023-11-18T00:54:55;93812.69;;;18.91;45.74
6090;BME280;3073;42.660;23.316;2023-11-18T00:57:22;93814.75;;;19.66;45.12
6090;BME280;3073;42.660;23.316;2023-11-18T00:59:49;93794.59;;;19.17;45.18
6090;BME280;3073;42.660;23.316;2023-11-18T01:02:16;93804.78;;;18.79;46.30
6090;BME280;3073;42.660;23.316;2023-11-18T01:04:43;93808.44;;;18.78;46.14
6090;BME280;3073;42.660;23.316;2023-11-18T01:07:13;93818.94;;;17.85;47.75
6090;BME280;3073;42.660;23.316;2023-11-18T01:09:40;93813.19;;;19.82;44.04
6090;BME280;3073;42.660;23.316;2023-11-18T01:12:07;93822.75;;;17.88;47.08
6090;BME280;3073;42.660;23.316;2023-11-18T01:14:35;93811.63;;;19.18;45.99
6090;BME280;3073;42.660;23.316;2023-11-18T01:17:03;93835.41;;;18.46;47.03
6090;BME280;3073;42.660;23.316;2023-11-18T01:19:31;93826.53;;;19.38;46.07
6090;BME280;3073;42.660;23.316;2023-11-18T01:21:57;93839.47;;;18.30;46.49
6090;BME280;3073;42.660;23.316;2023-11-18T01:24:26;93840.50;;;17.36;48.30
6090;BME280;3073;42.660;23.316;2023-11-18T01:26:53;93825.00;;;19.20;45.67
6090;BME280;3073;42.660;23.316;2023-11-18T01:29:21;93833.03;;;19.70;45.33
6090;BME280;3073;42.660;23.316;2023-11-18T01:31:49;93825.41;;;16.85;48.98
6090;BME280;3073;42.660;23.316;2023-11-18T01:34:16;93827.41;;;19.25;45.73
6090;BME280;3073;42.660;23.316;2023-11-18T01:36:46;93840.03;;;18.66;46.90
6090;BME280;3073;42.660;23.316;2023-11-18T01:39:14;93849.50;;;19.22;45.26
6090;BME280;3073;42.660;23.316;2023-11-18T01:41:44;93832.47;;;19.04;45.86
6090;BME280;3073;42.660;23.316;2023-11-18T01:44:11;93817.56;;;17.79;47.11
6090;BME280;3073;42.660;23.316;2023-11-18T01:46:41;93833.97;;;18.23;46.41
6090;BME280;3073;42.660;23.316;2023-11-18T01:49:11;93823.47;;;18.67;45.49
6090;BME280;3073;42.660;23.316;2023-11-18T01:51:40;93815.09;;;16.85;48.55
6090;BME280;3073;42.660;23.316;2023-11-18T01:54:07;93827.94;;;17.96;46.22
6090;BME280;3073;42.660;23.316;2023-11-18T01:56:40;93835.34;;;19.02;44.64
6090;BME280;3073;42.660;23.316;2023-11-18T01:59:10;93839.00;;;18.93;44.88
6090;BME280;3073;42.660;23.316;2023-11-18T02:01:45;93834.44;;;18.81;44.55
6090;BME280;3073;42.660;23.316;2023-11-18T02:04:13;93829.78;;;17.21;46.82
6090;BME280;3073;42.660;23.316;2023-11-18T02:06:40;93841.06;;;16.75;48.56
6090;BME280;3073;42.660;23.316;2023-11-18T02:09:07;93823.97;;;16.57;47.43
6090;BME280;3073;42.660;23.316;2023-11-18T02:11:37;93836.09;;;18.21;45.24
6090;BME280;3073;42.660;23.316;2023-11-18T02:14:07;93841.09;;;17.56;46.38
6090;BME280;3073;42.660;23.316;2023-11-18T02:16:38;93844.09;;;18.50;44.07
6090;BME280;3073;42.660;23.316;2023-11-18T02:19:09;93830.38;;;17.18;46.27
6090;BME280;3073;42.660;23.316;2023-11-18T02:21:39;93839.75;;;17.14;45.73
6090;BME280;3073;42.660;23.316;2023-11-18T02:24:07;93846.91;;;18.96;42.89
6090;BME280;3073;42.660;23.316;2023-11-18T02:26:36;93846.56;;;17.18;45.55
6090;BME280;3073;42.660;23.316;2023-11-18T02:29:03;93831.22;;;16.91;45.80
6090;BME280;3073;42.660;23.316;2023-11-18T02:31:33;93824.59;;;16.98;45.23
6090;BME280;3073;42.660;23.316;2023-11-18T02:34:08;93836.72;;;16.98;44.64
6090;BME280;3073;42.660;23.316;2023-11-18T02:36:44;93833.63;;;18.55;42.58
6090;BME280;3073;42.660;23.316;2023-11-18T02:39:20;93841.97;;;17.51;43.60
6090;BME280;3073;42.660;23.316;2023-11-18T02:41:52;93835.34;;;17.59;44.25
6090;BME280;3073;42.660;23.316;2023-11-18T02:44:19;93837.50;;;17.43;43.97
6090;BME280;3073;42.660;23.316;2023-11-18T02:46:48;93832.19;;;18.40;42.43
6090;BME280;3073;42.660;23.316;2023-11-18T02:49:16;93844.66;;;17.68;43.14
6090;BME280;3073;42.660;23.316;2023-11-18T02:51:43;93856.34;;;17.66;43.52
6090;BME280;3073;42.660;23.316;2023-11-18T02:54:11;93847.59;;;17.53;43.65
6090;BME280;3073;42.660;23.316;2023-11-18T02:56:38;93870.81;;;17.31;44.01
6090;BME280;3073;42.660;23.316;2023-11-18T02:59:06;93855.09;;;17.41;44.31
6090;BME280;3073;42.660;23.316;2023-11-18T03:01:33;93848.31;;;17.67;43.11
6090;BME280;3073;42.660;23.316;2023-11-18T03:04:00;93860.47;;;18.06;42.62
6090;BME280;3073;42.660;23.316;2023-11-18T03:06:27;93871.97;;;17.69;42.90
6090;BME280;3073;42.660;23.316;2023-11-18T03:08:54;93863.53;;;17.33;43.46
6090;BME280;3073;42.660;23.316;2023-11-18T03:11:21;93868.63;;;18.78;40.54
6090;BME280;3073;42.660;23.316;2023-11-18T03:13:48;93874.28;;;19.32;39.84
6090;BME280;3073;42.660;23.316;2023-11-18T03:16:17;93878.94;;;17.24;43.23
6090;BME280;3073;42.660;23.316;2023-11-18T03:18:44;93894.09;;;17.26;42.89
6090;BME280;3073;42.660;23.316;2023-11-18T03:21:11;93897.56;;;18.10;41.64
6090;BME280;3073;42.660;23.316;2023-11-18T03:23:38;93899.63;;;18.78;40.49
6090;BME280;3073;42.660;23.316;2023-11-18T03:26:06;93898.41;;;16.94;42.97
6090;BME280;3073;42.660;23.316;2023-11-18T03:28:33;93895.53;;;17.98;40.71
6090;BME280;3073;42.660;23.316;2023-11-18T03:31:02;93890.22;;;16.24;44.02
6090;BME280;3073;42.660;23.316;2023-11-18T03:33:30;93874.69;;;16.57;42.79
6090;BME280;3073;42.660;23.316;2023-11-18T03:35:57;93891.06;;;17.24;42.34
6090;BME280;3073;42.660;23.316;2023-11-18T03:38:25;93900.69;;;15.68;44.45
6090;BME280;3073;42.660;23.316;2023-11-18T03:40:53;93887.53;;;16.84;42.64
6090;BME280;3073;42.660;23.316;2023-11-18T03:43:21;93909.66;;;16.17;43.63
6090;BME280;3073;42.660;23.316;2023-11-18T03:45:48;93906.72;;;15.08;44.71
6090;BME280;3073;42.660;23.316;2023-11-18T03:48:15;93905.97;;;16.77;42.63
6090;BME280;3073;42.660;23.316;2023-11-18T03:50:44;93890.41;;;15.68;44.26
6090;BME280;3073;42.660;23.316;2023-11-18T03:53:11;93888.19;;;15.43;44.16
6090;BME280;3073;42.660;23.316;2023-11-18T03:55:38;93880.06;;;14.61;45.17
6090;BME280;3073;42.660;23.316;2023-11-18T03:58:03;93893.91;;;16.05;43.27
6090;BME280;3073;42.660;23.316;2023-11-18T04:00:30;93893.44;;;16.03;43.44
6090;BME280;3073;42.660;23.316;2023-11-18T04:02:59;93896.88;;;16.12;43.14
6090;BME280;3073;42.660;23.316;2023-11-18T04:05:26;93888.94;;;15.62;43.80
6090;BME280;3073;42.660;23.316;2023-11-18T04:07:54;93895.09;;;16.80;42.07
6090;BME280;3073;42.660;23.316;2023-11-18T04:10:21;93916.38;;;16.59;42.39
6090;BME280;3073;42.660;23.316;2023-11-18T04:12:48;93914.94;;;15.42;42.86
6090;BME280;3073;42.660;23.316;2023-11-18T04:15:15;93905.56;;;15.70;42.97
6090;BME280;3073;42.660;23.316;2023-11-18T04:17:42;93918.84;;;16.50;41.80
6090;BME280;3073;42.660;23.316;2023-11-18T04:20:11;93908.19;;;16.57;42.09
6090;BME280;3073;42.660;23.316;2023-11-18T04:22:40;93916.63;;;16.30;42.11
6090;BME280;3073;42.660;23.316;2023-11-18T04:25:09;93926.38;;;17.37;40.37
6090;BME280;3073;42.660;23.316;2023-11-18T04:27:37;93931.63;;;15.26;43.39
6090;BME280;3073;42.660;23.316;2023-11-18T04:30:04;93914.00;;;16.03;40.83
6090;BME280;3073;42.660;23.316;2023-11-18T04:32:31;93935.66;;;16.61;41.70
6090;BME280;3073;42.660;23.316;2023-11-18T04:34:59;93925.91;;;16.58;41.31
6090;BME280;3073;42.660;23.316;2023-11-18T04:37:32;93936.56;;;17.06;40.63
6090;BME280;3073;42.660;23.316;2023-11-18T04:39:59;93937.75;;;15.30;42.77
6090;BME280;3073;42.660;23.316;2023-11-18T04:42:27;93929.63;;;16.93;40.89
6090;BME280;3073;42.660;23.316;2023-11-18T04:44:55;93924.41;;;14.90;43.17
6090;BME280;3073;42.660;23.316;2023-11-18T04:47:22;93929.31;;;16.40;41.53
6090;BME280;3073;42.660;23.316;2023-11-18T04:49:50;93921.31;;;15.82;41.69
6090;BME280;3073;42.660;23.316;2023-11-18T04:52:17;93930.28;;;16.44;40.98
6090;BME280;3073;42.660;23.316;2023-11-18T04:54:44;93942.50;;;16.66;41.52
6090;BME280;3073;42.660;23.316;2023-11-18T04:57:13;93927.81;;;15.93;41.99
6090;BME280;3073;42.660;23.316;2023-11-18T04:59:43;93935.22;;;14.87;42.72
6090;BME280;3073;42.660;23.316;2023-11-18T05:02:10;93928.28;;;16.41;40.68
6090;BME280;3073;42.660;23.316;2023-11-18T05:04:37;93932.78;;;17.62;39.47
6090;BME280;3073;42.660;23.316;2023-11-18T05:07:06;93928.72;;;15.32;42.72
6090;BME280;3073;42.660;23.316;2023-11-18T05:09:33;93907.63;;;15.54;41.74
6090;BME280;3073;42.660;23.316;2023-11-18T05:12:00;93908.03;;;16.07;41.31
6090;BME280;3073;42.660;23.316;2023-11-18T05:14:27;93911.56;;;15.09;42.43
6090;BME280;3073;42.660;23.316;2023-11-18T05:16:56;93904.81;;;14.52;43.10
6090;BME280;3073;42.660;23.316;2023-11-18T05:19:23;93906.69;;;16.10;41.17
6090;BME280;3073;42.660;23.316;2023-11-18T05:21:51;93903.38;;;17.49;39.26
6090;BME280;3073;42.660;23.316;2023-11-18T05:24:19;93897.22;;;15.59;41.47
6090;BME280;3073;42.660;23.316;2023-11-18T05:26:46;93917.41;;;15.33;41.57
6090;BME280;3073;42.660;23.316;2023-11-18T05:29:13;93920.81;;;16.26;40.47
6090;BME280;3073;42.660;23.316;2023-11-18T05:31:42;93905.81;;;16.01;41.05
6090;BME280;3073;42.660;23.316;2023-11-18T05:34:11;93893.03;;;14.93;42.30
6090;BME280;3073;42.660;23.316;2023-11-18T05:36:38;93902.81;;;15.80;40.79
6090;BME280;3073;42.660;23.316;2023-11-18T05:39:06;93903.78;;;15.14;42.19
6090;BME280;3073;42.660;23.316;2023-11-18T05:41:34;93894.59;;;14.89;42.21
6090;BME280;3073;42.660;23.316;2023-11-18T05:44:05;93885.09;;;15.27;41.21
6090;BME280;3073;42.660;23.316;2023-11-18T05:46:34;93903.94;;;16.20;40.46
6090;BME280;3073;42.660;23.316;2023-11-18T05:49:02;93912.78;;;17.09;39.32
6090;BME280;3073;42.660;23.316;2023-11-18T05:51:34;93911.78;;;16.83;39.43
6090;BME280;3073;42.660;23.316;2023-11-18T05:54:01;93915.53;;;17.48;38.75
6090;BME280;3073;42.660;23.316;2023-11-18T05:56:28;93913.25;;;17.91;37.93
6090;BME280;3073;42.660;23.316;2023-11-18T05:58:55;93913.00;;;18.01;37.48
6090;BME280;3073;42.660;23.316;2023-11-18T06:01:23;93908.13;;;17.11;38.81
6090;BME280;3073;42.660;23.316;2023-11-18T06:03:53;93909.13;;;16.61;39.42
6090;BME280;3073;42.660;23.316;2023-11-18T06:06:20;93903.38;;;16.36;39.10
6090;BME280;3073;42.660;23.316;2023-11-18T06:08:49;93909.31;;;16.51;39.08
6090;BME280;3073;42.660;23.316;2023-11-18T06:11:16;93911.47;;;16.30;40.00
6090;BME280;3073;42.660;23.316;2023-11-18T06:13:45;93919.78;;;16.27;39.18
6090;BME280;3073;42.660;23.316;2023-11-18T06:16:13;93922.47;;;15.57;40.99
6090;BME280;3073;42.660;23.316;2023-11-18T06:18:42;93918.09;;;15.20;41.05
6090;BME280;3073;42.660;23.316;2023-11-18T06:21:13;93939.47;;;15.72;41.32
6090;BME280;3073;42.660;23.316;2023-11-18T06:23:40;93931.03;;;16.31;40.40
6090;BME280;3073;42.660;23.316;2023-11-18T06:26:08;93923.84;;;14.22;43.80
6090;BME280;3073;42.660;23.316;2023-11-18T06:28:38;93926.47;;;14.88;42.97
6090;BME280;3073;42.660;23.316;2023-11-18T06:31:05;93921.16;;;16.06;41.21
6090;BME280;3073;42.660;23.316;2023-11-18T06:33:38;93916.47;;;17.75;38.43
6090;BME280;3073;42.660;23.316;2023-11-18T06:36:08;93916.19;;;16.69;39.59
6090;BME280;3073;42.660;23.316;2023-11-18T06:38:36;93920.81;;;15.80;40.87
6090;BME280;3073;42.660;23.316;2023-11-18T06:41:03;93896.88;;;16.25;40.27
6090;BME280;3073;42.660;23.316;2023-11-18T06:43:36;93903.81;;;15.65;40.66
6090;BME280;3073;42.660;23.316;2023-11-18T06:46:18;93909.72;;;17.43;38.84
6090;BME280;3073;42.660;23.316;2023-11-18T06:48:47;93927.72;;;16.44;39.96
6090;BME280;3073;42.660;23.316;2023-11-18T06:51:14;93922.94;;;16.51;39.11
6090;BME280;3073;42.660;23.316;2023-11-18T06:53:42;93925.03;;;15.20;40.69
6090;BME280;3073;42.660;23.316;2023-11-18T06:56:10;93931.91;;;16.40;38.64
6090;BME280;3073;42.660;23.316;2023-11-18T06:58:39;93938.00;;;15.84;40.05
6090;BME280;3073;42.660;23.316;2023-11-18T07:01:08;93932.75;;;17.04;38.61
6090;BME280;3073;42.660;23.316;2023-11-18T07:03:35;93935.78;;;16.24;39.22
6090;BME280;3073;42.660;23.316;2023-11-18T07:06:02;93945.09;;;16.06;39.30
6090;BME280;3073;42.660;23.316;2023-11-18T07:08:31;93937.22;;;16.30;39.65
6090;BME280;3073;42.660;23.316;2023-11-18T07:10:58;93940.94;;;17.06;38.19
6090;BME280;3073;42.660;23.316;2023-11-18T07:13:27;93942.63;;;16.01;39.78
6090;BME280;3073;42.660;23.316;2023-11-18T07:15:56;93945.75;;;16.71;38.86
6090;BME280;3073;42.660;23.316;2023-11-18T07:18:23;93944.69;;;16.59;38.62
6090;BME280;3073;42.660;23.316;2023-11-18T07:20:50;93937.56;;;17.19;38.66
6090;BME280;3073;42.660;23.316;2023-11-18T07:23:18;93946.97;;;16.46;39.18
6090;BME280;3073;42.660;23.316;2023-11-18T07:25:45;93948.19;;;16.49;38.91
6090;BME280;3073;42.660;23.316;2023-11-18T07:28:12;93943.84;;;16.04;39.20
6090;BME280;3073;42.660;23.316;2023-11-18T07:30:41;93921.75;;;15.70;39.93
6090;BME280;3073;42.660;23.316;2023-11-18T07:33:09;93939.44;;;15.21;41.08
6090;BME280;3073;42.660;23.316;2023-11-18T07:35:36;93950.16;;;16.71;39.52
6090;BME280;3073;42.660;23.316;2023-11-18T07:38:03;93968.41;;;17.37;38.70
6090;BME280;3073;42.660;23.316;2023-11-18T07:40:32;93969.50;;;16.09;40.22
6090;BME280;3073;42.660;23.316;2023-11-18T07:42:59;93963.16;;;15.31;40.72
6090;BME280;3073;42.660;23.316;2023-11-18T07:45:34;93967.44;;;16.24;39.74
6090;BME280;3073;42.660;23.316;2023-11-18T07:48:03;93970.22;;;15.95;40.55
6090;BME280;3073;42.660;23.316;2023-11-18T07:50:34;93972.09;;;16.82;39.63
6090;BME280;3073;42.660;23.316;2023-11-18T07:53:01;93957.97;;;15.36;41.24
6090;BME280;3073;42.660;23.316;2023-11-18T07:55:29;93957.16;;;14.99;41.90
6090;BME280;3073;42.660;23.316;2023-11-18T07:57:59;93953.69;;;14.66;41.98
6090;BME280;3073;42.660;23.316;2023-11-18T08:00:27;93946.50;;;15.29;41.06
6090;BME280;3073;42.660;23.316;2023-11-18T08:02:57;93957.50;;;15.85;40.21
6090;BME280;3073;42.660;23.316;2023-11-18T08:05:25;93964.19;;;15.54;40.87
6090;BME280;3073;42.660;23.316;2023-11-18T08:07:55;93962.72;;;15.06;40.82
6090;BME280;3073;42.660;23.316;2023-11-18T08:10:22;93971.72;;;16.29;39.52
6090;BME280;3073;42.660;23.316;2023-11-18T08:12:57;93962.13;;;16.34;39.44
6090;BME280;3073;42.660;23.316;2023-11-18T08:15:25;93975.91;;;14.99;41.38
6090;BME280;3073;42.660;23.316;2023-11-18T08:17:55;93972.13;;;15.71;40.01
6090;BME280;3073;42.660;23.316;2023-11-18T08:20:22;93974.91;;;17.21;38.22
6090;BME280;3073;42.660;23.316;2023-11-18T08:22:51;93976.94;;;14.98;41.11
6090;BME280;3073;42.660;23.316;2023-11-18T08:25:19;93976.31;;;16.32;39.07
6090;BME280;3073;42.660;23.316;2023-11-18T08:27:47;93969.22;;;14.79;41.52
6090;BME280;3073;42.660;23.316;2023-11-18T08:30:15;93972.56;;;16.11;39.73
6090;BME280;3073;42.660;23.316;2023-11-18T08:32:45;93951.31;;;14.74;40.81
6090;BME280;3073;42.660;23.316;2023-11-18T08:35:12;93964.06;;;15.03;40.83
6090;BME280;3073;42.660;23.316;2023-11-18T08:37:40;93954.88;;;15.34;40.16
6090;BME280;3073;42.660;23.316;2023-11-18T08:40:08;93971.16;;;16.64;39.43
6090;BME280;3073;42.660;23.316;2023-11-18T08:42:42;93977.16;;;18.70;36.73
6090;BME280;3073;42.660;23.316;2023-11-18T08:45:14;93983.22;;;16.50;39.75
6090;BME280;3073;42.660;23.316;2023-11-18T08:47:43;93973.34;;;15.92;39.57
6090;BME280;3073;42.660;23.316;2023-11-18T08:50:13;93986.13;;;17.39;38.04
6090;BME280;3073;42.660;23.316;2023-11-18T08:52:40;93997.66;;;15.49;40.56
6090;BME280;3073;42.660;23.316;2023-11-18T08:55:10;94006.81;;;14.70;41.09
6090;BME280;3073;42.660;23.316;2023-11-18T08:57:45;93995.31;;;14.39;42.08
6090;BME280;3073;42.660;23.316;2023-11-18T09:00:18;93998.63;;;16.23;39.65
6090;BME280;3073;42.660;23.316;2023-11-18T09:02:58;93994.59;;;15.05;41.33
6090;BME280;3073;42.660;23.316;2023-11-18T09:05:26;93980.97;;;15.46;40.53
6090;BME280;3073;42.660;23.316;2023-11-18T09:07:57;93984.69;;;15.17;40.72
6090;BME280;3073;42.660;23.316;2023-11-18T09:10:26;93986.16;;;14.80;41.35
6090;BME280;3073;42.660;23.316;2023-11-18T09:12:55;93980.63;;;16.50;39.02
6090;BME280;3073;42.660;23.316;2023-11-18T09:15:22;93981.56;;;14.77;41.30
6090;BME280;3073;42.660;23.316;2023-11-18T09:17:49;93986.31;;;15.69;40.63
6090;BME280;3073;42.660;23.316;2023-11-18T09:20:16;94000.53;;;16.63;39.33
6090;BME280;3073;42.660;23.316;2023-11-18T09:22:46;93983.06;;;16.28;39.18
6090;BME280;3073;42.660;23.316;2023-11-18T09:25:13;93993.00;;;15.70;40.07
6090;BME280;3073;42.660;23.316;2023-11-18T09:27:41;93974.38;;;15.40;40.13
6090;BME280;3073;42.660;23.316;2023-11-18T09:30:10;93974.16;;;15.74;40.31
6090;BME280;3073;42.660;23.316;2023-11-18T09:32:40;93983.19;;;15.90;39.91
6090;BME280;3073;42.660;23.316;2023-11-18T09:35:07;93966.75;;;14.69;41.16
6090;BME280;3073;42.660;23.316;2023-11-18T09:37:35;93977.63;;;14.37;41.31
6090;BME280;3073;42.660;23.316;2023-11-18T09:40:02;93969.28;;;15.73;40.23
6090;BME280;3073;42.660;23.316;2023-11-18T09:42:36;93986.47;;;16.10;39.36
6090;BME280;3073;42.660;23.316;2023-11-18T09:45:07;93989.19;;;15.49;39.75
6090;BME280;3073;42.660;23.316;2023-11-18T09:47:42;93996.50;;;15.18;40.18
6090;BME280;3073;42.660;23.316;2023-11-18T09:50:17;94012.94;;;15.59;40.56
6090;BME280;3073;42.660;23.316;2023-11-18T09:52:48;93991.91;;;15.15;40.96
6090;BME280;3073;42.660;23.316;2023-11-18T09:55:25;93986.59;;;15.86;40.18
6090;BME280;3073;42.660;23.316;2023-11-18T09:57:58;93989.16;;;15.30;40.20
6090;BME280;3073;42.660;23.316;2023-11-18T10:00:31;93994.47;;;15.57;39.82
6090;BME280;3073;42.660;23.316;2023-11-18T10:03:00;93984.47;;;15.56;40.32
6090;BME280;3073;42.660;23.316;2023-11-18T10:05:29;93979.81;;;14.49;40.70
6090;BME280;3073;42.660;23.316;2023-11-18T10:07:59;93970.03;;;15.36;40.30
6090;BME280;3073;42.660;23.316;2023-11-18T10:10:27;93975.88;;;16.43;38.88
6090;BME280;3073;42.660;23.316;2023-11-18T10:13:02;93975.53;;;15.85;39.72
6090;BME280;3073;42.660;23.316;2023-11-18T10:15:34;93989.47;;;15.05;40.16
6090;BME280;3073;42.660;23.316;2023-11-18T10:18:03;93974.28;;;15.45;40.13
6090;BME280;3073;42.660;23.316;2023-11-18T10:20:46;93973.13;;;15.57;39.82
6090;BME280;3073;42.660;23.316;2023-11-18T10:23:17;93983.66;;;15.36;39.83
6090;BME280;3073;42.660;23.316;2023-11-18T10:25:48;93988.94;;;14.84;40.91
6090;BME280;3073;42.660;23.316;2023-11-18T10:28:22;94000.69;;;15.88;38.95
6090;BME280;3073;42.660;23.316;2023-11-18T10:30:53;93992.34;;;15.96;39.35
6090;BME280;3073;42.660;23.316;2023-11-18T10:33:22;93988.69;;;16.89;37.79
6090;BME280;3073;42.660;23.316;2023-11-18T10:35:52;93992.66;;;13.86;41.96
6090;BME280;3073;42.660;23.316;2023-11-18T10:38:21;94001.97;;;15.11;39.70
6090;BME280;3073;42.660;23.316;2023-11-18T10:40:53;93989.50;;;16.12;38.56
6090;BME280;3073;42.660;23.316;2023-11-18T10:43:21;93990.28;;;15.80;39.13
6090;BME280;3073;42.660;23.316;2023-11-18T10:46:03;93990.13;;;16.95;37.52
6090;BME280;3073;42.660;23.316;2023-11-18T10:48:35;93993.78;;;15.70;39.00
6090;BME280;3073;42.660;23.316;2023-11-18T10:51:05;93987.53;;;15.58;38.52
6090;BME280;3073;42.660;23.316;2023-11-18T10:53:32;93976.66;;;15.42;39.91
6090;BME280;3073;42.660;23.316;2023-11-18T10:56:03;93976.53;;;15.52;39.11
6090;BME280;3073;42.660;23.316;2023-11-18T10:58:35;93989.50;;;15.42;38.89
6090;BME280;3073;42.660;23.316;2023-11-18T11:01:06;93989.84;;;15.91;38.87
6090;BME280;3073;42.660;23.316;2023-11-18T11:03:52;93967.81;;;16.18;38.63
6090;BME280;3073;42.660;23.316;2023-11-18T11:06:21;93979.50;;;15.40;39.07
6090;BME280;3073;42.660;23.316;2023-11-18T11:08:49;93970.94;;;16.88;38.17
6090;BME280;3073;42.660;23.316;2023-11-18T11:11:17;93963.16;;;15.87;39.03
6090;BME280;3073;42.660;23.316;2023-11-18T11:13:49;93968.47;;;15.59;39.13
6090;BME280;3073;42.660;23.316;2023-11-18T11:16:19;93962.44;;;16.01;39.02
6090;BME280;3073;42.660;23.316;2023-11-18T11:18:53;93959.81;;;14.46;40.93
6090;BME280;3073;42.660;23.316;2023-11-18T11:21:26;93960.09;;;14.16;40.75
6090;BME280;3073;42.660;23.316;2023-11-18T11:23:59;93962.34;;;16.79;37.74
6090;BME280;3073;42.660;23.316;2023-11-18T11:26:34;93957.03;;;15.83;38.59
6090;BME280;3073;42.660;23.316;2023-11-18T11:29:18;93963.63;;;16.35;38.13
6090;BME280;3073;42.660;23.316;2023-11-18T11:32:00;93963.19;;;16.88;37.84
6090;BME280;3073;42.660;23.316;2023-11-18T11:34:39;93955.88;;;15.76;38.83
6090;BME280;3073;42.660;23.316;2023-11-18T11:37:08;93960.53;;;16.66;37.89
6090;BME280;3073;42.660;23.316;2023-11-18T11:39:37;93955.84;;;16.81;37.58
6090;BME280;3073;42.660;23.316;2023-11-18T11:42:13;93958.38;;;15.62;38.89
6090;BME280;3073;42.660;23.316;2023-11-18T11:44:44;93963.28;;;15.96;39.12
6090;BME280;3073;42.660;23.316;2023-11-18T11:47:13;93965.69;;;14.18;41.00
6090;BME280;3073;42.660;23.316;2023-11-18T11:49:49;93945.63;;;14.54;40.62
6090;BME280;3073;42.660;23.316;2023-11-18T11:52:26;93947.28;;;15.48;39.02
6090;BME280;3073;42.660;23.316;2023-11-18T11:55:00;93953.59;;;15.74;38.87
6090;BME280;3073;42.660;23.316;2023-11-18T11:57:32;93955.84;;;16.08;39.23
6090;BME280;3073;42.660;23.316;2023-11-18T12:00:03;93949.78;;;14.73;40.23
6090;BME280;3073;42.660;23.316;2023-11-18T12:02:47;93947.25;;;16.99;37.58
6090;BME280;3073;42.660;23.316;2023-11-18T12:05:17;93951.53;;;15.58;39.46
6090;BME280;3073;42.660;23.316;2023-11-18T12:07:50;93963.13;;;13.89;42.06
6090;BME280;3073;42.660;23.316;2023-11-18T12:10:20;93943.06;;;14.96;40.46
6090;BME280;3073;42.660;23.316;2023-11-18T12:12:47;93947.69;;;15.74;38.88
6090;BME280;3073;42.660;23.316;2023-11-18T12:15:15;93942.47;;;15.23;39.72
6090;BME280;3073;42.660;23.316;2023-11-18T12:18:11;93951.94;;;14.61;40.84
6090;BME280;3073;42.660;23.316;2023-11-18T12:20:44;93943.28;;;16.66;38.30
6090;BME280;3073;42.660;23.316;2023-11-18T12:23:13;93962.66;;;16.31;38.36
6090;BME280;3073;42.660;23.316;2023-11-18T12:25:41;93957.88;;;16.25;39.07
6090;BME280;3073;42.660;23.316;2023-11-18T12:28:09;93944.06;;;16.07;39.01
6090;BME280;3073;42.660;23.316;2023-11-18T12:30:41;93941.69;;;15.22;40.02
6090;BME280;3073;42.660;23.316;2023-11-18T12:33:17;93943.19;;;16.12;38.72
6090;BME280;3073;42.660;23.316;2023-11-18T12:42:03;93945.91;;;17.38;37.58
6090;BME280;3073;42.660;23.316;2023-11-18T12:44:41;93946.28;;;17.09;38.04
6090;BME280;3073;42.660;23.316;2023-11-18T12:47:20;93961.03;;;18.64;35.72
6090;BME280;3073;42.660;23.316;2023-11-18T12:49:54;93957.88;;;18.14;36.65
6090;BME280;3073;42.660;23.316;2023-11-18T12:52:22;93960.59;;;16.47;38.27
6090;BME280;3073;42.660;23.316;2023-11-18T12:54:52;93961.53;;;15.91;38.52
6090;BME280;3073;42.660;23.316;2023-11-18T12:57:26;93965.75;;;15.69;39.43
6090;BME280;3073;42.660;23.316;2023-11-18T12:59:57;93974.13;;;15.18;39.91
6090;BME280;3073;42.660;23.316;2023-11-18T13:02:24;93967.63;;;16.14;38.79
6090;BME280;3073;42.660;23.316;2023-11-18T13:04:51;93978.97;;;16.73;38.27
6090;BME280;3073;42.660;23.316;2023-11-18T13:07:19;93957.31;;;16.28;38.87
6090;BME280;3073;42.660;23.316;2023-11-18T13:09:47;93969.63;;;16.90;38.14
6090;BME280;3073;42.660;23.316;2023-11-18T13:12:15;93974.31;;;14.32;41.57
6090;BME280;3073;42.660;23.316;2023-11-18T13:14:44;93978.44;;;16.11;39.34
6090;BME280;3073;42.660;23.316;2023-11-18T13:17:14;93979.84;;;16.36;38.77
6090;BME280;3073;42.660;23.316;2023-11-18T13:19:43;93977.44;;;15.61;39.57
6090;BME280;3073;42.660;23.316;2023-11-18T13:22:13;93969.63;;;15.85;40.12
6090;BME280;3073;42.660;23.316;2023-11-18T13:24:41;93978.66;;;15.45;39.99
6090;BME280;3073;42.660;23.316;2023-11-18T13:27:10;93984.25;;;16.49;39.16